Aviation Digital Data Service (ADDS)

Output produced by METARs form (0639 UTC 24 March 2019)
found at http://www.aviationweather.gov/metar/data/
 
MHSC 240558Z AUTO 32009KT 9999 CLR 19/15 A3012 RMK AO2 SLP163 T01880149 10256 20188 403110173 50005 $
MHLC 240500Z 00000KT 9999 FEW028 20/17 Q1018 A3006 NOSIG
TAF MHLC 240435Z 2406/2506 06004KT 9999 FEW024 TX29/2419Z TN17/2412Z 
     BECMG 2410/2412 00000KT FEW024 
     BECMG 2416/2418 03010KT SCT028TCU SCT090
       
MHRO 240600Z 36003KT 9999 FEW022 19/16 Q1018 A3006 NOSIG
TAF MHRO 240435Z 2406/2506 08004KT 9999 SCT020 SCT080 TX28/2421Z TN24/2412Z 
     BECMG 2410/2412 19005KT SCT020 
     BECMG 2418/2420 35006KT SCT025 
     BECMG 2502/2504 07004KT SKC
       
MHLM 240600Z 18004KT 9999 FEW026 20/18 Q1018 A3006 NOSIG
TAF MHLM 240435Z 2406/2506 06004KT 9999 FEW028 TX32/2421Z TN18/2412Z 
     BECMG 2406/2408 18005KT 
     BECMG 2416/2418 35006KT 
     BECMG 2420/2422 35006KT FEW025 BKN080 
     BECMG 2501/2503 08004KT FEW028
       
MHTG 240600Z 36010KT 8000 FEW026 18/11 Q1022 A3018 NOSIG
TAF MHTG 240435Z 2406/2506 01005KT 9999 SCT026 TX30/2421Z TN13/2412Z 
     BECMG 2410/2412 8000 FEW024 
     BECMG 2413/2415 9999 
     BECMG 2418/2420 06010KT 
     BECMG 2501/2503 36005KT BKN026